sensor_id;sensor_type;location;lat;lon;timestamp;pressure;altitude;pressure_sealevel;temperature;humidity
83116;BME280;72996;40.206;44.498;2023-12-20T00:01:48;90094.97;;;2.83;39.15
83116;BME280;72996;40.206;44.498;2023-12-20T00:04:14;90086.66;;;2.85;38.86
83116;BME280;72996;40.206;44.498;2023-12-20T00:06:40;90090.47;;;2.84;38.45
83116;BME280;72996;40.206;44.498;2023-12-20T00:09:05;90089.00;;;2.77;39.01
83116;BME280;72996;40.206;44.498;2023-12-20T00:11:31;90079.03;;;2.76;39.04
83116;BME280;72996;40.206;44.498;2023-12-20T00:13:57;90076.66;;;2.72;38.73
83116;BME280;72996;40.206;44.498;2023-12-20T00:16:24;90072.88;;;2.79;39.05
83116;BME280;72996;40.206;44.498;2023-12-20T00:18:49;90073.63;;;2.79;38.61
83116;BME280;72996;40.206;44.498;2023-12-20T00:21:15;90075.28;;;2.77;39.00
83116;BME280;72996;40.206;44.498;2023-12-20T00:23:40;90074.06;;;2.72;38.57
83116;BME280;72996;40.206;44.498;2023-12-20T00:26:06;90069.09;;;2.80;38.47
83116;BME280;72996;40.206;44.498;2023-12-20T00:28:31;90070.75;;;2.77;38.53
83116;BME280;72996;40.206;44.498;2023-12-20T00:30:57;90050.75;;;2.63;38.51
83116;BME280;72996;40.206;44.498;2023-12-20T00:33:23;90071.69;;;2.74;38.59
83116;BME280;72996;40.206;44.498;2023-12-20T00:35:49;90059.56;;;2.66;38.67
83116;BME280;72996;40.206;44.498;2023-12-20T00:38:14;90062.91;;;2.72;38.62
83116;BME280;72996;40.206;44.498;2023-12-20T00:40:40;90056.00;;;2.69;38.98
83116;BME280;72996;40.206;44.498;2023-12-20T00:43:06;90052.66;;;2.57;39.43
83116;BME280;72996;40.206;44.498;2023-12-20T00:45:31;90049.34;;;2.62;39.27
83116;BME280;72996;40.206;44.498;2023-12-20T00:47:57;90046.50;;;2.66;38.99
83116;BME280;72996;40.206;44.498;2023-12-20T00:50:24;90049.16;;;2.77;38.80
83116;BME280;72996;40.206;44.498;2023-12-20T00:52:50;90040.84;;;2.78;38.27
83116;BME280;72996;40.206;44.498;2023-12-20T00:55:15;90047.97;;;2.83;38.76
83116;BME280;72996;40.206;44.498;2023-12-20T00:57:41;90050.59;;;2.89;38.68
83116;BME280;72996;40.206;44.498;2023-12-20T01:00:07;90036.56;;;2.81;38.62
83116;BME280;72996;40.206;44.498;2023-12-20T01:02:35;90047.03;;;2.86;38.55
83116;BME280;72996;40.206;44.498;2023-12-20T01:05:00;90037.31;;;2.87;38.51
83116;BME280;72996;40.206;44.498;2023-12-20T01:07:26;90049.66;;;2.86;38.19
83116;BME280;72996;40.206;44.498;2023-12-20T01:09:51;90048.22;;;2.80;38.46
83116;BME280;72996;40.206;44.498;2023-12-20T01:12:17;90043.69;;;2.75;38.76
83116;BME280;72996;40.206;44.498;2023-12-20T01:14:42;90037.03;;;2.68;38.66
83116;BME280;72996;40.206;44.498;2023-12-20T01:17:08;90047.69;;;2.65;38.72
83116;BME280;72996;40.206;44.498;2023-12-20T01:19:34;90030.13;;;2.60;38.61
83116;BME280;72996;40.206;44.498;2023-12-20T01:22:00;90040.56;;;2.60;38.70
83116;BME280;72996;40.206;44.498;2023-12-20T01:24:26;90026.53;;;2.41;38.65
83116;BME280;72996;40.206;44.498;2023-12-20T01:26:51;90045.28;;;2.50;38.90
83116;BME280;72996;40.206;44.498;2023-12-20T01:29:17;90033.13;;;2.36;39.26
83116;BME280;72996;40.206;44.498;2023-12-20T01:31:42;90034.34;;;2.41;39.04
83116;BME280;72996;40.206;44.498;2023-12-20T01:34:08;90049.53;;;2.48;38.90
83116;BME280;72996;40.206;44.498;2023-12-20T01:36:34;90038.63;;;2.44;38.92
83116;BME280;72996;40.206;44.498;2023-12-20T01:38:59;90033.34;;;2.33;38.76
83116;BME280;72996;40.206;44.498;2023-12-20T01:41:25;90032.19;;;2.34;39.09
83116;BME280;72996;40.206;44.498;2023-12-20T01:43:50;90052.56;;;2.35;39.08
83116;BME280;72996;40.206;44.498;2023-12-20T01:46:19;90051.16;;;2.34;39.11
83116;BME280;72996;40.206;44.498;2023-12-20T01:48:45;90056.84;;;2.33;39.52
83116;BME280;72996;40.206;44.498;2023-12-20T01:51:11;90049.47;;;2.26;39.41
83116;BME280;72996;40.206;44.498;2023-12-20T01:53:37;90063.88;;;2.16;39.34
83116;BME280;72996;40.206;44.498;2023-12-20T01:56:03;90060.72;;;2.01;39.94
83116;BME280;72996;40.206;44.498;2023-12-20T01:58:29;90061.13;;;1.94;40.11
83116;BME280;72996;40.206;44.498;2023-12-20T02:00:55;90031.66;;;1.77;39.85
83116;BME280;72996;40.206;44.498;2023-12-20T02:03:21;90073.06;;;2.06;39.55
83116;BME280;72996;40.206;44.498;2023-12-20T02:05:47;90069.78;;;2.11;39.38
83116;BME280;72996;40.206;44.498;2023-12-20T02:08:13;90078.06;;;2.15;39.29
83116;BME280;72996;40.206;44.498;2023-12-20T02:10:39;90075.97;;;2.13;39.58
83116;BME280;72996;40.206;44.498;2023-12-20T02:13:06;90075.53;;;2.26;39.58
83116;BME280;72996;40.206;44.498;2023-12-20T02:15:31;90067.03;;;2.31;39.25
83116;BME280;72996;40.206;44.498;2023-12-20T02:17:57;90079.84;;;2.40;39.17
83116;BME280;72996;40.206;44.498;2023-12-20T02:20:23;90072.25;;;2.31;39.51
83116;BME280;72996;40.206;44.498;2023-12-20T02:22:48;90072.69;;;2.24;39.46
83116;BME280;72996;40.206;44.498;2023-12-20T02:25:14;90071.25;;;2.23;39.57
83116;BME280;72996;40.206;44.498;2023-12-20T02:27:40;90075.53;;;2.26;39.46
83116;BME280;72996;40.206;44.498;2023-12-20T02:30:06;90080.75;;;2.26;39.13
83116;BME280;72996;40.206;44.498;2023-12-20T02:32:32;90076.97;;;2.27;39.39
83116;BME280;72996;40.206;44.498;2023-12-20T02:34:58;90070.53;;;2.22;39.49
83116;BME280;72996;40.206;44.498;2023-12-20T02:37:24;90070.81;;;2.30;39.28
83116;BME280;72996;40.206;44.498;2023-12-20T02:39:49;90074.59;;;2.23;39.28
83116;BME280;72996;40.206;44.498;2023-12-20T02:42:15;90076.53;;;2.34;39.28
83116;BME280;72996;40.206;44.498;2023-12-20T02:44:41;90074.84;;;2.31;39.00
83116;BME280;72996;40.206;44.498;2023-12-20T02:47:06;90081.19;;;2.19;39.55
83116;BME280;72996;40.206;44.498;2023-12-20T02:49:32;90077.16;;;2.18;39.65
83116;BME280;72996;40.206;44.498;2023-12-20T02:51:58;90085.97;;;2.26;39.59
83116;BME280;72996;40.206;44.498;2023-12-20T02:54:23;90084.53;;;2.25;39.64
83116;BME280;72996;40.206;44.498;2023-12-20T02:56:49;90090.91;;;2.18;39.84
83116;BME280;72996;40.206;44.498;2023-12-20T02:59:15;90089.28;;;2.21;39.40
83116;BME280;72996;40.206;44.498;2023-12-20T03:01:45;90103.06;;;2.27;39.61
83116;BME280;72996;40.206;44.498;2023-12-20T03:04:11;90086.91;;;2.23;39.53
83116;BME280;72996;40.206;44.498;2023-12-20T03:06:38;90092.34;;;2.19;39.55
83116;BME280;72996;40.206;44.498;2023-12-20T03:09:03;90099.94;;;2.23;39.43
83116;BME280;72996;40.206;44.498;2023-12-20T03:11:29;90098.53;;;2.22;39.52
83116;BME280;72996;40.206;44.498;2023-12-20T03:13:56;90092.13;;;2.23;39.70
83116;BME280;72996;40.206;44.498;2023-12-20T03:16:21;90090.69;;;2.22;39.60
83116;BME280;72996;40.206;44.498;2023-12-20T03:18:47;90094.22;;;2.19;39.56
83116;BME280;72996;40.206;44.498;2023-12-20T03:21:13;90089.28;;;2.21;39.53
83116;BME280;72996;40.206;44.498;2023-12-20T03:23:38;90090.47;;;2.25;39.39
83116;BME280;72996;40.206;44.498;2023-12-20T03:26:07;90092.63;;;2.27;39.84
83116;BME280;72996;40.206;44.498;2023-12-20T03:28:32;90100.66;;;2.23;40.21
83116;BME280;72996;40.206;44.498;2023-12-20T03:30:57;90094.91;;;2.14;39.75
83116;BME280;72996;40.206;44.498;2023-12-20T03:33:23;90094.50;;;2.26;39.84
83116;BME280;72996;40.206;44.498;2023-12-20T03:35:49;90107.31;;;2.30;39.96
83116;BME280;72996;40.206;44.498;2023-12-20T03:38:14;90094.50;;;2.21;39.47
83116;BME280;72996;40.206;44.498;2023-12-20T03:40:40;90104.97;;;2.32;39.60
83116;BME280;72996;40.206;44.498;2023-12-20T03:43:05;90098.81;;;2.35;39.50
83116;BME280;72996;40.206;44.498;2023-12-20T03:45:31;90101.72;;;2.48;39.48
83116;BME280;72996;40.206;44.498;2023-12-20T03:47:57;90105.53;;;2.47;39.53
83116;BME280;72996;40.206;44.498;2023-12-20T03:50:23;90106.22;;;2.47;39.42
83116;BME280;72996;40.206;44.498;2023-12-20T03:52:48;90105.53;;;2.47;39.20
83116;BME280;72996;40.206;44.498;2023-12-20T03:55:15;90094.31;;;2.35;39.16
83116;BME280;72996;40.206;44.498;2023-12-20T03:57:41;90109.31;;;2.46;39.20
83116;BME280;72996;40.206;44.498;2023-12-20T04:00:08;90101.00;;;2.47;39.05
83116;BME280;72996;40.206;44.498;2023-12-20T04:02:40;90104.03;;;2.35;39.08
83116;BME280;72996;40.206;44.498;2023-12-20T04:05:06;90111.59;;;2.33;39.41
83116;BME280;72996;40.206;44.498;2023-12-20T04:07:32;90092.56;;;2.16;39.38
83116;BME280;72996;40.206;44.498;2023-12-20T04:09:58;90100.63;;;2.18;39.73
83116;BME280;72996;40.206;44.498;2023-12-20T04:12:24;90094.69;;;2.17;39.33
83116;BME280;72996;40.206;44.498;2023-12-20T04:14:50;90111.09;;;2.29;39.43
83116;BME280;72996;40.206;44.498;2023-12-20T04:17:16;90105.91;;;2.29;39.35
83116;BME280;72996;40.206;44.498;2023-12-20T04:19:42;90105.19;;;2.28;39.17
83116;BME280;72996;40.206;44.498;2023-12-20T04:22:08;90120.81;;;2.23;39.85
83116;BME280;72996;40.206;44.498;2023-12-20T04:24:34;90128.13;;;2.19;39.48
83116;BME280;72996;40.206;44.498;2023-12-20T04:27:00;90117.19;;;2.15;39.69
83116;BME280;72996;40.206;44.498;2023-12-20T04:29:25;90127.66;;;2.20;39.39
83116;BME280;72996;40.206;44.498;2023-12-20T04:31:51;90118.63;;;2.16;39.40
83116;BME280;72996;40.206;44.498;2023-12-20T04:34:17;90120.31;;;2.19;38.97
83116;BME280;72996;40.206;44.498;2023-12-20T04:36:43;90125.34;;;2.28;39.17
83116;BME280;72996;40.206;44.498;2023-12-20T04:39:10;90126.25;;;2.25;39.42
83116;BME280;72996;40.206;44.498;2023-12-20T04:41:35;90114.59;;;2.15;39.55
83116;BME280;72996;40.206;44.498;2023-12-20T04:44:01;90131.75;;;2.32;39.18
83116;BME280;72996;40.206;44.498;2023-12-20T04:46:27;90140.63;;;2.46;39.23
83116;BME280;72996;40.206;44.498;2023-12-20T04:48:53;90138.03;;;2.51;38.88
83116;BME280;72996;40.206;44.498;2023-12-20T04:51:18;90142.09;;;2.58;39.17
83116;BME280;72996;40.206;44.498;2023-12-20T04:53:44;90130.00;;;2.66;39.02
83116;BME280;72996;40.206;44.498;2023-12-20T04:56:10;90141.31;;;3.05;39.08
83116;BME280;72996;40.206;44.498;2023-12-20T04:58:35;90142.88;;;3.83;38.59
83116;BME280;72996;40.206;44.498;2023-12-20T05:01:01;90140.22;;;4.38;37.84
83116;BME280;72996;40.206;44.498;2023-12-20T05:03:26;90138.44;;;4.84;37.55
83116;BME280;72996;40.206;44.498;2023-12-20T05:05:52;90151.88;;;5.21;36.79
83116;BME280;72996;40.206;44.498;2023-12-20T05:08:18;90143.19;;;5.37;36.46
83116;BME280;72996;40.206;44.498;2023-12-20T05:10:43;90140.84;;;5.28;35.65
83116;BME280;72996;40.206;44.498;2023-12-20T05:13:09;90149.28;;;5.10;36.77
83116;BME280;72996;40.206;44.498;2023-12-20T05:15:35;90147.78;;;4.63;35.68
83116;BME280;72996;40.206;44.498;2023-12-20T05:18:00;90158.53;;;4.32;36.14
83116;BME280;72996;40.206;44.498;2023-12-20T05:20:26;90149.31;;;3.98;37.05
83116;BME280;72996;40.206;44.498;2023-12-20T05:22:51;90160.66;;;3.57;37.98
83116;BME280;72996;40.206;44.498;2023-12-20T05:25:17;90156.84;;;3.41;37.71
83116;BME280;72996;40.206;44.498;2023-12-20T05:27:43;90152.81;;;3.35;38.10
83116;BME280;72996;40.206;44.498;2023-12-20T05:30:09;90157.56;;;3.42;37.75
83116;BME280;72996;40.206;44.498;2023-12-20T05:32:34;90163.06;;;3.66;37.54
83116;BME280;72996;40.206;44.498;2023-12-20T05:35:00;90169.25;;;3.68;37.81
83116;BME280;72996;40.206;44.498;2023-12-20T05:37:26;90169.97;;;3.69;37.68
83116;BME280;72996;40.206;44.498;2023-12-20T05:39:51;90165.44;;;3.69;37.20
83116;BME280;72996;40.206;44.498;2023-12-20T05:42:17;90166.66;;;3.74;38.06
83116;BME280;72996;40.206;44.498;2023-12-20T05:44:42;90177.56;;;3.78;37.09
83116;BME280;72996;40.206;44.498;2023-12-20T05:47:08;90169.97;;;3.69;37.59
83116;BME280;72996;40.206;44.498;2023-12-20T05:49:34;90169.72;;;3.56;37.83
83116;BME280;72996;40.206;44.498;2023-12-20T05:51:59;90175.41;;;3.54;37.45
83116;BME280;72996;40.206;44.498;2023-12-20T05:54:25;90175.41;;;3.65;37.63
83116;BME280;72996;40.206;44.498;2023-12-20T05:56:50;90175.66;;;3.73;38.21
83116;BME280;72996;40.206;44.498;2023-12-20T05:59:16;90183.75;;;3.91;38.11
83116;BME280;72996;40.206;44.498;2023-12-20T06:01:42;90179.50;;;4.05;38.04
83116;BME280;72996;40.206;44.498;2023-12-20T06:04:07;90182.09;;;4.10;37.25
83116;BME280;72996;40.206;44.498;2023-12-20T06:06:33;90177.84;;;4.07;38.13
83116;BME280;72996;40.206;44.498;2023-12-20T06:08:59;90186.38;;;4.08;38.54
83116;BME280;72996;40.206;44.498;2023-12-20T06:11:25;90183.28;;;4.09;37.72
83116;BME280;72996;40.206;44.498;2023-12-20T06:13:51;90194.72;;;4.12;38.35
83116;BME280;72996;40.206;44.498;2023-12-20T06:16:18;90185.91;;;4.09;37.50
83116;BME280;72996;40.206;44.498;2023-12-20T06:18:44;90187.09;;;4.14;37.71
83116;BME280;72996;40.206;44.498;2023-12-20T06:21:10;90187.31;;;4.21;37.59
83116;BME280;72996;40.206;44.498;2023-12-20T06:23:38;90190.41;;;4.42;37.28
83116;BME280;72996;40.206;44.498;2023-12-20T06:26:04;90185.63;;;4.57;37.93
83116;BME280;72996;40.206;44.498;2023-12-20T06:28:30;90180.16;;;4.66;37.93
83116;BME280;72996;40.206;44.498;2023-12-20T06:30:55;90176.81;;;4.65;37.90
83116;BME280;72996;40.206;44.498;2023-12-20T06:33:22;90185.63;;;4.68;37.63
83116;BME280;72996;40.206;44.498;2023-12-20T06:35:49;90187.03;;;4.69;37.05
83116;BME280;72996;40.206;44.498;2023-12-20T06:38:14;90177.97;;;4.70;37.56
83116;BME280;72996;40.206;44.498;2023-12-20T06:40:40;90194.41;;;4.76;37.19
83116;BME280;72996;40.206;44.498;2023-12-20T06:43:06;90185.13;;;4.75;37.03
83116;BME280;72996;40.206;44.498;2023-12-20T06:45:32;90187.72;;;4.80;37.12
83116;BME280;72996;40.206;44.498;2023-12-20T06:47:58;90176.94;;;5.06;37.97
83116;BME280;72996;40.206;44.498;2023-12-20T06:50:24;90182.00;;;5.50;37.13
83116;BME280;72996;40.206;44.498;2023-12-20T06:52:49;90177.47;;;5.50;36.68
83116;BME280;72996;40.206;44.498;2023-12-20T06:55:15;90177.56;;;6.15;36.97
83116;BME280;72996;40.206;44.498;2023-12-20T06:57:42;90170.88;;;7.15;35.94
83116;BME280;72996;40.206;44.498;2023-12-20T07:00:08;90172.84;;;7.89;35.59
83116;BME280;72996;40.206;44.498;2023-12-20T07:02:36;90176.38;;;8.41;32.21
83116;BME280;72996;40.206;44.498;2023-12-20T07:05:02;90173.03;;;8.41;33.44
83116;BME280;72996;40.206;44.498;2023-12-20T07:07:27;90171.63;;;9.10;34.25
83116;BME280;72996;40.206;44.498;2023-12-20T07:09:53;90161.25;;;9.51;31.52
83116;BME280;72996;40.206;44.498;2023-12-20T07:12:19;90168.19;;;9.75;32.93
83116;BME280;72996;40.206;44.498;2023-12-20T07:14:47;90177.59;;;9.37;32.14
83116;BME280;72996;40.206;44.498;2023-12-20T07:17:13;90177.34;;;9.61;33.09
83116;BME280;72996;40.206;44.498;2023-12-20T07:19:41;90175.13;;;9.52;32.32
83116;BME280;72996;40.206;44.498;2023-12-20T07:22:07;90178.19;;;9.04;32.62
83116;BME280;72996;40.206;44.498;2023-12-20T07:24:34;90170.06;;;9.54;33.65
83116;BME280;72996;40.206;44.498;2023-12-20T07:27:00;90166.19;;;10.14;32.33
83116;BME280;72996;40.206;44.498;2023-12-20T07:29:26;90155.28;;;10.59;31.56
83116;BME280;72996;40.206;44.498;2023-12-20T07:31:55;90160.09;;;10.40;31.02
83116;BME280;72996;40.206;44.498;2023-12-20T07:34:20;90166.06;;;10.20;31.61
83116;BME280;72996;40.206;44.498;2023-12-20T07:36:46;90162.66;;;10.32;31.80
83116;BME280;72996;40.206;44.498;2023-12-20T07:39:12;90154.53;;;10.10;31.53
83116;BME280;72996;40.206;44.498;2023-12-20T07:41:38;90142.72;;;10.11;32.28
83116;BME280;72996;40.206;44.498;2023-12-20T07:44:04;90140.81;;;9.98;31.40
83116;BME280;72996;40.206;44.498;2023-12-20T07:46:30;90149.22;;;9.63;31.10
83116;BME280;72996;40.206;44.498;2023-12-20T07:48:56;90142.91;;;9.33;32.95
83116;BME280;72996;40.206;44.498;2023-12-20T07:51:21;90138.53;;;8.96;31.71
83116;BME280;72996;40.206;44.498;2023-12-20T07:53:47;90146.53;;;8.52;31.86
83116;BME280;72996;40.206;44.498;2023-12-20T07:56:17;90143.47;;;8.48;32.41
83116;BME280;72996;40.206;44.498;2023-12-20T07:58:43;90137.19;;;8.51;33.47
83116;BME280;72996;40.206;44.498;2023-12-20T08:01:10;90133.84;;;8.37;32.00
83116;BME280;72996;40.206;44.498;2023-12-20T08:03:36;90129.16;;;8.12;33.11
83116;BME280;72996;40.206;44.498;2023-12-20T08:06:02;90128.91;;;7.97;33.90
83116;BME280;72996;40.206;44.498;2023-12-20T08:08:28;90115.22;;;8.17;33.43
83116;BME280;72996;40.206;44.498;2023-12-20T08:10:54;90128.63;;;8.89;34.13
83116;BME280;72996;40.206;44.498;2023-12-20T08:13:19;90119.56;;;9.24;33.34
83116;BME280;72996;40.206;44.498;2023-12-20T08:15:50;90115.47;;;9.36;32.85
83116;BME280;72996;40.206;44.498;2023-12-20T08:18:15;90098.38;;;9.29;31.96
83116;BME280;72996;40.206;44.498;2023-12-20T08:20:41;90109.34;;;9.20;32.53
83116;BME280;72996;40.206;44.498;2023-12-20T08:23:07;90102.94;;;9.29;32.83
83116;BME280;72996;40.206;44.498;2023-12-20T08:25:32;90093.78;;;9.43;32.32
83116;BME280;72996;40.206;44.498;2023-12-20T08:27:58;90103.94;;;9.39;32.14
83116;BME280;72996;40.206;44.498;2023-12-20T08:30:23;90097.81;;;9.44;31.91
83116;BME280;72996;40.206;44.498;2023-12-20T08:32:50;90082.91;;;9.46;31.39
83116;BME280;72996;40.206;44.498;2023-12-20T08:35:16;90090.66;;;9.65;31.93
83116;BME280;72996;40.206;44.498;2023-12-20T08:37:43;90081.81;;;9.75;31.67
83116;BME280;72996;40.206;44.498;2023-12-20T08:40:09;90080.00;;;9.91;32.47
83116;BME280;72996;40.206;44.498;2023-12-20T08:42:35;90056.97;;;10.12;32.76
83116;BME280;72996;40.206;44.498;2023-12-20T08:45:00;90069.66;;;10.34;32.12
83116;BME280;72996;40.206;44.498;2023-12-20T08:47:26;90076.59;;;10.65;30.70
83116;BME280;72996;40.206;44.498;2023-12-20T08:49:52;90061.75;;;10.62;30.64
83116;BME280;72996;40.206;44.498;2023-12-20T08:52:24;90066.38;;;10.69;30.54
83116;BME280;72996;40.206;44.498;2023-12-20T08:54:50;90044.19;;;10.72;30.24
83116;BME280;72996;40.206;44.498;2023-12-20T08:57:21;90047.53;;;11.08;30.32
83116;BME280;72996;40.206;44.498;2023-12-20T08:59:48;90054.63;;;11.13;30.62
83116;BME280;72996;40.206;44.498;2023-12-20T09:02:14;90037.63;;;10.93;29.91
83116;BME280;72996;40.206;44.498;2023-12-20T09:04:39;90051.00;;;10.95;29.61
83116;BME280;72996;40.206;44.498;2023-12-20T09:07:05;90047.22;;;11.11;30.65
83116;BME280;72996;40.206;44.498;2023-12-20T09:09:31;90046.94;;;11.30;29.89
83116;BME280;72996;40.206;44.498;2023-12-20T09:11:57;90030.41;;;11.01;30.17
83116;BME280;72996;40.206;44.498;2023-12-20T09:14:23;90030.22;;;10.99;29.49
83116;BME280;72996;40.206;44.498;2023-12-20T09:16:49;90045.78;;;10.75;30.06
83116;BME280;72996;40.206;44.498;2023-12-20T09:19:17;90040.13;;;10.71;31.40
83116;BME280;72996;40.206;44.498;2023-12-20T09:21:43;90024.34;;;11.29;30.15
83116;BME280;72996;40.206;44.498;2023-12-20T09:24:09;90027.72;;;12.10;30.42
83116;BME280;72996;40.206;44.498;2023-12-20T09:26:35;90020.28;;;12.68;29.02
83116;BME280;72996;40.206;44.498;2023-12-20T09:29:00;90014.91;;;13.06;29.17
83116;BME280;72996;40.206;44.498;2023-12-20T09:31:26;90020.88;;;13.14;28.58
83116;BME280;72996;40.206;44.498;2023-12-20T09:33:52;90017.91;;;12.95;28.53
83116;BME280;72996;40.206;44.498;2023-12-20T09:36:17;90002.25;;;12.52;28.03
83116;BME280;72996;40.206;44.498;2023-12-20T09:38:43;90009.00;;;11.93;29.07
83116;BME280;72996;40.206;44.498;2023-12-20T09:41:09;90008.50;;;11.44;28.75
83116;BME280;72996;40.206;44.498;2023-12-20T09:43:37;90003.41;;;10.95;29.27
83116;BME280;72996;40.206;44.498;2023-12-20T09:46:05;89991.91;;;10.50;29.67
83116;BME280;72996;40.206;44.498;2023-12-20T09:48:32;90006.41;;;10.64;31.01
83116;BME280;72996;40.206;44.498;2023-12-20T09:50:59;89998.31;;;10.62;30.45
83116;BME280;72996;40.206;44.498;2023-12-20T09:53:25;90005.53;;;10.61;30.82
83116;BME280;72996;40.206;44.498;2023-12-20T09:55:58;89999.69;;;10.27;30.63
83116;BME280;72996;40.206;44.498;2023-12-20T09:58:25;90005.50;;;9.85;31.72
83116;BME280;72996;40.206;44.498;2023-12-20T10:00:51;89996.22;;;9.91;31.04
83116;BME280;72996;40.206;44.498;2023-12-20T10:03:23;89966.47;;;9.50;31.44
83116;BME280;72996;40.206;44.498;2023-12-20T10:05:53;89989.72;;;9.51;31.07
83116;BME280;72996;40.206;44.498;2023-12-20T10:08:21;89982.50;;;9.52;31.83
83116;BME280;72996;40.206;44.498;2023-12-20T10:10:47;89994.28;;;9.51;31.69
83116;BME280;72996;40.206;44.498;2023-12-20T10:13:13;89975.22;;;9.45;32.23
83116;BME280;72996;40.206;44.498;2023-12-20T10:15:39;89973.63;;;9.62;31.25
83116;BME280;72996;40.206;44.498;2023-12-20T10:18:06;89978.84;;;9.55;33.12
83116;BME280;72996;40.206;44.498;2023-12-20T10:20:32;89970.78;;;9.19;32.47
83116;BME280;72996;40.206;44.498;2023-12-20T10:22:58;89978.31;;;9.02;32.63
83116;BME280;72996;40.206;44.498;2023-12-20T10:25:25;89969.19;;;9.03;33.13
83116;BME280;72996;40.206;44.498;2023-12-20T10:28:12;89944.78;;;8.90;32.84
83116;BME280;72996;40.206;44.498;2023-12-20T10:30:38;89966.84;;;9.00;32.41
83116;BME280;72996;40.206;44.498;2023-12-20T10:33:06;89968.22;;;8.80;32.95
83116;BME280;72996;40.206;44.498;2023-12-20T10:35:33;89967.91;;;8.84;33.84
83116;BME280;72996;40.206;44.498;2023-12-20T10:38:03;89944.94;;;9.05;33.05
83116;BME280;72996;40.206;44.498;2023-12-20T10:40:32;89956.22;;;9.26;33.16
83116;BME280;72996;40.206;44.498;2023-12-20T10:43:00;89953.41;;;9.24;32.98
83116;BME280;72996;40.206;44.498;2023-12-20T10:45:27;89949.34;;;9.23;32.57
83116;BME280;72996;40.206;44.498;2023-12-20T10:47:52;89950.13;;;9.31;32.93
83116;BME280;72996;40.206;44.498;2023-12-20T10:50:19;89938.94;;;9.38;32.51
83116;BME280;72996;40.206;44.498;2023-12-20T10:52:47;89958.06;;;9.51;32.65
83116;BME280;72996;40.206;44.498;2023-12-20T10:55:13;89944.25;;;9.25;32.29
83116;BME280;72996;40.206;44.498;2023-12-20T10:57:39;89952.25;;;8.99;32.56
83116;BME280;72996;40.206;44.498;2023-12-20T11:00:06;89939.34;;;8.75;33.39
83116;BME280;72996;40.206;44.498;2023-12-20T11:02:39;89954.13;;;8.91;33.04
83116;BME280;72996;40.206;44.498;2023-12-20T11:08:06;89941.56;;;8.84;32.64
83116;BME280;72996;40.206;44.498;2023-12-20T11:14:00;89918.78;;;8.73;32.87
83116;BME280;72996;40.206;44.498;2023-12-20T11:16:27;89945.03;;;9.12;33.73
83116;BME280;72996;40.206;44.498;2023-12-20T11:18:52;89945.44;;;9.37;33.05
83116;BME280;72996;40.206;44.498;2023-12-20T11:21:18;89951.16;;;9.69;32.12
83116;BME280;72996;40.206;44.498;2023-12-20T11:23:44;89953.94;;;9.63;31.81
83116;BME280;72996;40.206;44.498;2023-12-20T11:26:09;89948.31;;;9.26;32.88
83116;BME280;72996;40.206;44.498;2023-12-20T11:28:35;89953.25;;;9.09;33.45
83116;BME280;72996;40.206;44.498;2023-12-20T11:31:01;89954.25;;;9.06;32.79
83116;BME280;72996;40.206;44.498;2023-12-20T11:33:35;89955.03;;;8.93;32.60
83116;BME280;72996;40.206;44.498;2023-12-20T11:36:07;89940.91;;;8.57;33.66
83116;BME280;72996;40.206;44.498;2023-12-20T11:38:37;89961.38;;;8.64;34.09
83116;BME280;72996;40.206;44.498;2023-12-20T11:41:05;89956.78;;;8.65;33.58
83116;BME280;72996;40.206;44.498;2023-12-20T11:46:07;89954.38;;;8.54;33.60
83116;BME280;72996;40.206;44.498;2023-12-20T11:48:38;89958.75;;;8.51;33.14
83116;BME280;72996;40.206;44.498;2023-12-20T11:51:11;89950.97;;;8.46;33.53
83116;BME280;72996;40.206;44.498;2023-12-20T11:53:36;89961.00;;;8.34;33.89
83116;BME280;72996;40.206;44.498;2023-12-20T11:56:03;89956.81;;;8.13;34.43
83116;BME280;72996;40.206;44.498;2023-12-20T11:58:29;89956.50;;;8.16;34.83
83116;BME280;72996;40.206;44.498;2023-12-20T12:00:56;89958.94;;;8.14;34.01
83116;BME280;72996;40.206;44.498;2023-12-20T12:03:21;89956.63;;;8.24;34.10
83116;BME280;72996;40.206;44.498;2023-12-20T12:05:49;89952.81;;;8.25;34.37
83116;BME280;72996;40.206;44.498;2023-12-20T12:08:15;89952.09;;;8.24;33.77
83116;BME280;72996;40.206;44.498;2023-12-20T12:10:43;89953.38;;;8.18;33.85
83116;BME280;72996;40.206;44.498;2023-12-20T12:13:09;89948.09;;;8.18;34.03
83116;BME280;72996;40.206;44.498;2023-12-20T12:15:36;89944.06;;;8.04;34.14
83116;BME280;72996;40.206;44.498;2023-12-20T12:18:02;89944.25;;;7.93;34.17
83116;BME280;72996;40.206;44.498;2023-12-20T12:20:27;89948.09;;;7.92;34.48
83116;BME280;72996;40.206;44.498;2023-12-20T12:23:06;89934.72;;;8.03;35.06
83116;BME280;72996;40.206;44.498;2023-12-20T12:25:35;89943.06;;;7.94;34.87
83116;BME280;72996;40.206;44.498;2023-12-20T12:28:01;89941.22;;;7.89;34.10
83116;BME280;72996;40.206;44.498;2023-12-20T12:30:27;89940.41;;;7.81;34.77
83116;BME280;72996;40.206;44.498;2023-12-20T12:32:53;89939.38;;;7.71;34.78
83116;BME280;72996;40.206;44.498;2023-12-20T12:35:19;89938.34;;;7.61;34.76
83116;BME280;72996;40.206;44.498;2023-12-20T12:37:46;89942.28;;;7.54;35.43
83116;BME280;72996;40.206;44.498;2023-12-20T12:40:13;89938.72;;;7.52;34.95
83116;BME280;72996;40.206;44.498;2023-12-20T12:42:40;89939.13;;;7.56;35.55
83116;BME280;72996;40.206;44.498;2023-12-20T12:45:07;89938.53;;;7.50;35.09
83116;BME280;72996;40.206;44.498;2023-12-20T12:47:33;89923.25;;;7.48;35.13
83116;BME280;72996;40.206;44.498;2023-12-20T12:49:59;89934.28;;;7.60;34.95
83116;BME280;72996;40.206;44.498;2023-12-20T12:52:25;89921.94;;;7.55;35.34
83116;BME280;72996;40.206;44.498;2023-12-20T12:54:52;89928.84;;;7.58;35.35
83116;BME280;72996;40.206;44.498;2023-12-20T12:57:18;89934.69;;;7.51;35.22
83116;BME280;72996;40.206;44.498;2023-12-20T12:59:44;89932.06;;;7.51;35.55
83116;BME280;72996;40.206;44.498;2023-12-20T13:02:13;89929.91;;;7.49;35.49
83116;BME280;72996;40.206;44.498;2023-12-20T13:04:42;89933.06;;;7.48;35.17